sensor_id;sensor_type;location;lat;lon;timestamp;pressure;altitude;pressure_sealevel;temperature;humidity
51321;BME280;38732;49.556;6.286;2023-04-06T00:02:12;99849.44;;;6.01;68.62
51321;BME280;38732;49.556;6.286;2023-04-06T00:04:44;99841.47;;;5.90;65.78
51321;BME280;38732;49.556;6.286;2023-04-06T00:07:12;99843.19;;;5.90;64.51
51321;BME280;38732;49.556;6.286;2023-04-06T00:09:40;99842.94;;;5.47;65.75
51321;BME280;38732;49.556;6.286;2023-04-06T00:12:09;99838.47;;;5.40;66.42
51321;BME280;38732;49.556;6.286;2023-04-06T00:14:37;99834.50;;;5.84;69.69
51321;BME280;38732;49.556;6.286;2023-04-06T00:17:05;99833.13;;;5.64;67.93
51321;BME280;38732;49.556;6.286;2023-04-06T00:19:33;99836.84;;;5.44;67.23
51321;BME280;38732;49.556;6.286;2023-04-06T00:22:01;99837.28;;;5.27;67.61
51321;BME280;38732;49.556;6.286;2023-04-06T00:24:30;99833.38;;;5.41;68.24
51321;BME280;38732;49.556;6.286;2023-04-06T00:26:58;99833.09;;;5.29;67.66
51321;BME280;38732;49.556;6.286;2023-04-06T00:29:26;99828.50;;;5.51;68.59
51321;BME280;38732;49.556;6.286;2023-04-06T00:31:54;99827.19;;;5.32;68.14
51321;BME280;38732;49.556;6.286;2023-04-06T00:34:22;99822.06;;;5.32;69.42
51321;BME280;38732;49.556;6.286;2023-04-06T00:36:51;99827.06;;;5.29;68.68
51321;BME280;38732;49.556;6.286;2023-04-06T00:39:19;99822.00;;;5.30;67.93
51321;BME280;38732;49.556;6.286;2023-04-06T00:41:51;99820.56;;;5.40;68.64
51321;BME280;38732;49.556;6.286;2023-04-06T00:44:19;99816.69;;;5.23;66.69
51321;BME280;38732;49.556;6.286;2023-04-06T00:46:48;99807.88;;;5.13;68.07
51321;BME280;38732;49.556;6.286;2023-04-06T00:49:16;99810.72;;;4.92;67.91
51321;BME280;38732;49.556;6.286;2023-04-06T00:51:44;99811.28;;;5.12;68.76
51321;BME280;38732;49.556;6.286;2023-04-06T00:54:12;99807.16;;;5.18;68.80
51321;BME280;38732;49.556;6.286;2023-04-06T00:56:41;99806.25;;;5.16;68.47
51321;BME280;38732;49.556;6.286;2023-04-06T00:59:11;99808.25;;;4.95;68.41
51321;BME280;38732;49.556;6.286;2023-04-06T01:01:39;99812.59;;;4.97;67.59
51321;BME280;38732;49.556;6.286;2023-04-06T01:04:07;99804.78;;;4.93;67.79
51321;BME280;38732;49.556;6.286;2023-04-06T01:06:36;99810.31;;;5.08;68.77
51321;BME280;38732;49.556;6.286;2023-04-06T01:09:04;99808.84;;;4.86;67.32
51321;BME280;38732;49.556;6.286;2023-04-06T01:11:32;99809.81;;;4.90;69.82
51321;BME280;38732;49.556;6.286;2023-04-06T01:14:00;99804.03;;;4.67;67.91
51321;BME280;38732;49.556;6.286;2023-04-06T01:16:29;99806.25;;;4.85;67.57
51321;BME280;38732;49.556;6.286;2023-04-06T01:18:57;99797.44;;;4.75;68.24
51321;BME280;38732;49.556;6.286;2023-04-06T01:21:25;99802.06;;;4.87;70.54
51321;BME280;38732;49.556;6.286;2023-04-06T01:23:53;99795.63;;;4.71;68.27
51321;BME280;38732;49.556;6.286;2023-04-06T01:26:21;99794.47;;;4.61;68.52
51321;BME280;38732;49.556;6.286;2023-04-06T01:28:50;99796.09;;;4.58;67.97
51321;BME280;38732;49.556;6.286;2023-04-06T01:31:18;99794.75;;;4.42;68.54
51321;BME280;38732;49.556;6.286;2023-04-06T01:33:46;99794.09;;;4.47;68.90
51321;BME280;38732;49.556;6.286;2023-04-06T01:36:15;99794.94;;;4.48;69.29
51321;BME280;38732;49.556;6.286;2023-04-06T01:38:43;99800.41;;;4.31;70.17
51321;BME280;38732;49.556;6.286;2023-04-06T01:41:11;99794.50;;;4.32;69.36
51321;BME280;38732;49.556;6.286;2023-04-06T01:43:40;99790.53;;;4.42;68.65
51321;BME280;38732;49.556;6.286;2023-04-06T01:46:08;99791.09;;;4.33;68.85
51321;BME280;38732;49.556;6.286;2023-04-06T01:48:36;99792.34;;;4.46;69.76
51321;BME280;38732;49.556;6.286;2023-04-06T01:51:04;99785.63;;;4.21;67.92
51321;BME280;38732;49.556;6.286;2023-04-06T01:53:32;99790.53;;;4.42;69.06
51321;BME280;38732;49.556;6.286;2023-04-06T01:56:01;99786.84;;;4.32;69.22
51321;BME280;38732;49.556;6.286;2023-04-06T01:58:29;99789.31;;;4.29;68.50
51321;BME280;38732;49.556;6.286;2023-04-06T02:00:57;99794.28;;;4.26;70.10
51321;BME280;38732;49.556;6.286;2023-04-06T02:03:25;99788.22;;;4.23;71.39
51321;BME280;38732;49.556;6.286;2023-04-06T02:05:53;99792.50;;;4.22;70.07
51321;BME280;38732;49.556;6.286;2023-04-06T02:08:22;99788.56;;;4.06;69.89
51321;BME280;38732;49.556;6.286;2023-04-06T02:10:50;99788.16;;;4.20;70.16
51321;BME280;38732;49.556;6.286;2023-04-06T02:13:18;99787.09;;;4.13;69.63
51321;BME280;38732;49.556;6.286;2023-04-06T02:15:46;99781.38;;;4.22;68.93
51321;BME280;38732;49.556;6.286;2023-04-06T02:18:14;99776.53;;;4.31;69.76
51321;BME280;38732;49.556;6.286;2023-04-06T02:20:43;99782.41;;;4.00;67.77
51321;BME280;38732;49.556;6.286;2023-04-06T02:23:11;99785.75;;;4.26;71.62
51321;BME280;38732;49.556;6.286;2023-04-06T02:25:39;99775.53;;;4.26;71.08
51321;BME280;38732;49.556;6.286;2023-04-06T02:28:08;99770.41;;;4.24;69.64
51321;BME280;38732;49.556;6.286;2023-04-06T02:30:36;99768.16;;;4.35;69.30
51321;BME280;38732;49.556;6.286;2023-04-06T02:33:04;99774.59;;;4.22;69.46
51321;BME280;38732;49.556;6.286;2023-04-06T02:35:32;99774.00;;;4.04;68.41
51321;BME280;38732;49.556;6.286;2023-04-06T02:38:00;99778.09;;;3.97;70.16
51321;BME280;38732;49.556;6.286;2023-04-06T02:40:29;99779.22;;;3.80;70.46
51321;BME280;38732;49.556;6.286;2023-04-06T02:42:57;99775.00;;;3.80;70.21
51321;BME280;38732;49.556;6.286;2023-04-06T02:45:25;99774.53;;;3.92;69.80
51321;BME280;38732;49.556;6.286;2023-04-06T02:47:53;99773.22;;;4.05;70.43
51321;BME280;38732;49.556;6.286;2023-04-06T02:50:21;99770.28;;;3.93;69.45
51321;BME280;38732;49.556;6.286;2023-04-06T02:52:50;99771.06;;;3.92;70.11
51321;BME280;38732;49.556;6.286;2023-04-06T02:55:18;99771.03;;;3.90;70.73
51321;BME280;38732;49.556;6.286;2023-04-06T02:57:46;99764.16;;;3.87;69.64
51321;BME280;38732;49.556;6.286;2023-04-06T03:00:14;99766.41;;;3.78;70.41
51321;BME280;38732;49.556;6.286;2023-04-06T03:02:43;99769.88;;;3.80;70.34
51321;BME280;38732;49.556;6.286;2023-04-06T03:05:11;99770.28;;;3.93;72.41
51321;BME280;38732;49.556;6.286;2023-04-06T03:07:39;99768.91;;;4.04;71.07
51321;BME280;38732;49.556;6.286;2023-04-06T03:10:07;99765.16;;;3.93;70.61
51321;BME280;38732;49.556;6.286;2023-04-06T03:12:36;99763.00;;;3.78;69.80
51321;BME280;38732;49.556;6.286;2023-04-06T03:15:04;99766.63;;;3.84;70.47
51321;BME280;38732;49.556;6.286;2023-04-06T03:17:33;99766.56;;;3.83;69.58
51321;BME280;38732;49.556;6.286;2023-04-06T03:20:01;99777.16;;;3.68;71.13
51321;BME280;38732;49.556;6.286;2023-04-06T03:22:29;99775.63;;;3.48;69.62
51321;BME280;38732;49.556;6.286;2023-04-06T03:24:58;99777.22;;;3.71;72.67
51321;BME280;38732;49.556;6.286;2023-04-06T03:27:26;99772.44;;;3.80;72.11
51321;BME280;38732;49.556;6.286;2023-04-06T03:29:54;99775.16;;;3.34;70.03
51321;BME280;38732;49.556;6.286;2023-04-06T03:32:22;99773.88;;;3.46;70.60
51321;BME280;38732;49.556;6.286;2023-04-06T03:34:50;99772.09;;;3.44;71.84
51321;BME280;38732;49.556;6.286;2023-04-06T03:37:19;99770.47;;;3.46;70.06
51321;BME280;38732;49.556;6.286;2023-04-06T03:39:47;99773.38;;;3.31;71.15
51321;BME280;38732;49.556;6.286;2023-04-06T03:42:15;99772.09;;;3.44;72.84
51321;BME280;38732;49.556;6.286;2023-04-06T03:44:43;99780.00;;;3.52;72.23
51321;BME280;38732;49.556;6.286;2023-04-06T03:47:11;99777.41;;;3.50;71.92
51321;BME280;38732;49.556;6.286;2023-04-06T03:49:39;99779.50;;;3.36;72.19
51321;BME280;38732;49.556;6.286;2023-04-06T03:52:08;99784.56;;;3.35;71.30
51321;BME280;38732;49.556;6.286;2023-04-06T03:54:36;99783.81;;;3.13;70.35
51321;BME280;38732;49.556;6.286;2023-04-06T03:57:04;99784.34;;;3.29;72.29
51321;BME280;38732;49.556;6.286;2023-04-06T03:59:33;99785.25;;;3.31;72.94
51321;BME280;38732;49.556;6.286;2023-04-06T04:02:01;99783.03;;;3.40;72.29
51321;BME280;38732;49.556;6.286;2023-04-06T04:04:29;99785.75;;;3.44;72.32
51321;BME280;38732;49.556;6.286;2023-04-06T04:06:58;99789.41;;;3.27;71.39
51321;BME280;38732;49.556;6.286;2023-04-06T04:09:26;99791.19;;;3.30;70.97
51321;BME280;38732;49.556;6.286;2023-04-06T04:11:54;99785.75;;;3.44;71.99
51321;BME280;38732;49.556;6.286;2023-04-06T04:14:22;99783.97;;;3.18;72.10
51321;BME280;38732;49.556;6.286;2023-04-06T04:16:50;99786.88;;;3.29;72.08
51321;BME280;38732;49.556;6.286;2023-04-06T04:19:19;99789.84;;;3.41;72.50
51321;BME280;38732;49.556;6.286;2023-04-06T04:21:47;99788.28;;;3.44;71.30
51321;BME280;38732;49.556;6.286;2023-04-06T04:24:15;99789.59;;;3.33;71.27
51321;BME280;38732;49.556;6.286;2023-04-06T04:26:43;99789.59;;;3.33;71.04
51321;BME280;38732;49.556;6.286;2023-04-06T04:29:11;99798.25;;;3.13;71.76
51321;BME280;38732;49.556;6.286;2023-04-06T04:31:40;99793.63;;;3.27;71.62
51321;BME280;38732;49.556;6.286;2023-04-06T04:34:08;99791.47;;;3.39;72.57
51321;BME280;38732;49.556;6.286;2023-04-06T04:36:36;99792.56;;;3.45;72.53
51321;BME280;38732;49.556;6.286;2023-04-06T04:39:04;99797.88;;;3.52;72.31
51321;BME280;38732;49.556;6.286;2023-04-06T04:41:32;99790.59;;;3.62;70.00
51321;BME280;38732;49.556;6.286;2023-04-06T04:44:01;99798.19;;;3.61;71.05
51321;BME280;38732;49.556;6.286;2023-04-06T04:46:29;99798.53;;;3.72;71.50
51321;BME280;38732;49.556;6.286;2023-04-06T04:48:57;99797.41;;;3.63;71.11
51321;BME280;38732;49.556;6.286;2023-04-06T04:51:25;99796.06;;;3.49;72.04
51321;BME280;38732;49.556;6.286;2023-04-06T04:53:53;99799.72;;;3.56;72.20
51321;BME280;38732;49.556;6.286;2023-04-06T04:56:22;99794.44;;;3.51;71.66
51321;BME280;38732;49.556;6.286;2023-04-06T04:58:50;99804.22;;;3.63;73.17
51321;BME280;38732;49.556;6.286;2023-04-06T05:01:18;99803.59;;;3.70;71.63
51321;BME280;38732;49.556;6.286;2023-04-06T05:03:46;99800.31;;;3.74;73.57
51321;BME280;38732;49.556;6.286;2023-04-06T05:06:14;99799.06;;;3.88;73.54
51321;BME280;38732;49.556;6.286;2023-04-06T05:08:43;99800.38;;;3.76;71.47
51321;BME280;38732;49.556;6.286;2023-04-06T05:11:11;99803.09;;;3.80;71.75
51321;BME280;38732;49.556;6.286;2023-04-06T05:13:39;99800.16;;;3.95;72.16
51321;BME280;38732;49.556;6.286;2023-04-06T05:16:07;99800.84;;;3.89;71.28
51321;BME280;38732;49.556;6.286;2023-04-06T05:18:36;99803.63;;;3.97;72.09
51321;BME280;38732;49.556;6.286;2023-04-06T05:21:04;99806.72;;;3.87;71.64
51321;BME280;38732;49.556;6.286;2023-04-06T05:23:32;99797.34;;;3.87;72.09
51321;BME280;38732;49.556;6.286;2023-04-06T05:26:00;99802.66;;;3.94;71.75
51321;BME280;38732;49.556;6.286;2023-04-06T05:28:29;99799.47;;;4.01;72.53
51321;BME280;38732;49.556;6.286;2023-04-06T05:30:57;99800.94;;;3.93;72.55
51321;BME280;38732;49.556;6.286;2023-04-06T05:33:26;99804.25;;;3.90;72.85
51321;BME280;38732;49.556;6.286;2023-04-06T05:35:54;99794.22;;;3.96;72.57
51321;BME280;38732;49.556;6.286;2023-04-06T05:38:22;99787.41;;;3.97;73.73
51321;BME280;38732;49.556;6.286;2023-04-06T05:40:52;99793.41;;;3.97;73.12
51321;BME280;38732;49.556;6.286;2023-04-06T05:43:20;99792.38;;;4.19;74.96
51321;BME280;38732;49.556;6.286;2023-04-06T05:45:48;99795.53;;;4.10;73.85
51321;BME280;38732;49.556;6.286;2023-04-06T05:48:16;99796.53;;;4.16;75.11
51321;BME280;38732;49.556;6.286;2023-04-06T05:50:48;99796.28;;;4.08;72.90
51321;BME280;38732;49.556;6.286;2023-04-06T05:53:17;99796.00;;;4.26;75.97
51321;BME280;38732;49.556;6.286;2023-04-06T05:55:45;99803.41;;;4.18;73.15
51321;BME280;38732;49.556;6.286;2023-04-06T05:58:13;99801.31;;;4.32;74.38
51321;BME280;38732;49.556;6.286;2023-04-06T06:00:41;99802.84;;;4.27;73.16
51321;BME280;38732;49.556;6.286;2023-04-06T06:03:09;99804.88;;;4.39;74.07
51321;BME280;38732;49.556;6.286;2023-04-06T06:05:38;99804.03;;;4.38;73.59
51321;BME280;38732;49.556;6.286;2023-04-06T06:08:06;99803.88;;;4.33;73.54
51321;BME280;38732;49.556;6.286;2023-04-06T06:10:34;99795.66;;;4.42;72.84
51321;BME280;38732;49.556;6.286;2023-04-06T06:13:02;99801.84;;;4.50;73.26
51321;BME280;38732;49.556;6.286;2023-04-06T06:15:30;99803.13;;;4.65;73.86
51321;BME280;38732;49.556;6.286;2023-04-06T06:17:59;99801.34;;;4.62;72.50
51321;BME280;38732;49.556;6.286;2023-04-06T06:20:27;99802.38;;;4.69;73.60
51321;BME280;38732;49.556;6.286;2023-04-06T06:22:55;99807.47;;;4.69;73.32
51321;BME280;38732;49.556;6.286;2023-04-06T06:25:23;99796.69;;;4.79;73.29
51321;BME280;38732;49.556;6.286;2023-04-06T06:27:52;99801.38;;;4.94;74.19
51321;BME280;38732;49.556;6.286;2023-04-06T06:30:20;99800.84;;;5.06;71.86
51321;BME280;38732;49.556;6.286;2023-04-06T06:32:49;99801.25;;;5.19;71.77
51321;BME280;38732;49.556;6.286;2023-04-06T06:35:17;99803.38;;;5.36;72.22
51321;BME280;38732;49.556;6.286;2023-04-06T06:37:45;99810.34;;;5.41;71.65
51321;BME280;38732;49.556;6.286;2023-04-06T06:40:14;99799.53;;;5.52;72.62
51321;BME280;38732;49.556;6.286;2023-04-06T06:42:42;99805.34;;;5.81;70.85
51321;BME280;38732;49.556;6.286;2023-04-06T06:45:10;99806.81;;;5.70;71.50
51321;BME280;38732;49.556;6.286;2023-04-06T06:47:38;99809.84;;;5.90;70.58
51321;BME280;38732;49.556;6.286;2023-04-06T06:50:07;99810.06;;;5.97;70.32
51321;BME280;38732;49.556;6.286;2023-04-06T06:52:35;99805.25;;;6.10;70.83
51321;BME280;38732;49.556;6.286;2023-04-06T06:55:03;99808.16;;;6.25;70.07
51321;BME280;38732;49.556;6.286;2023-04-06T06:57:32;99800.91;;;6.45;70.13
51321;BME280;38732;49.556;6.286;2023-04-06T07:00:00;99801.91;;;6.52;66.87
51321;BME280;38732;49.556;6.286;2023-04-06T07:02:28;99799.47;;;6.58;67.95
51321;BME280;38732;49.556;6.286;2023-04-06T07:04:56;99806.31;;;6.59;67.28
51321;BME280;38732;49.556;6.286;2023-04-06T07:07:24;99801.44;;;6.71;68.53
51321;BME280;38732;49.556;6.286;2023-04-06T07:09:53;99806.53;;;6.68;68.54
51321;BME280;38732;49.556;6.286;2023-04-06T07:12:21;99802.75;;;6.91;69.55
51321;BME280;38732;49.556;6.286;2023-04-06T07:14:49;99802.16;;;7.05;70.26
51321;BME280;38732;49.556;6.286;2023-04-06T07:17:18;99798.72;;;7.06;69.12
51321;BME280;38732;49.556;6.286;2023-04-06T07:19:46;99790.81;;;7.41;68.40
51321;BME280;38732;49.556;6.286;2023-04-06T07:22:14;99793.56;;;7.50;67.31
51321;BME280;38732;49.556;6.286;2023-04-06T07:24:43;99799.38;;;7.90;66.84
51321;BME280;38732;49.556;6.286;2023-04-06T07:27:11;99787.50;;;7.98;66.49
51321;BME280;38732;49.556;6.286;2023-04-06T07:29:39;99794.63;;;8.16;67.42
51321;BME280;38732;49.556;6.286;2023-04-06T07:32:07;99790.72;;;8.41;65.04
51321;BME280;38732;49.556;6.286;2023-04-06T07:34:36;99795.38;;;8.68;60.80
51321;BME280;38732;49.556;6.286;2023-04-06T07:37:04;99790.28;;;8.71;61.13
51321;BME280;38732;49.556;6.286;2023-04-06T07:39:32;99793.91;;;8.87;59.32
51321;BME280;38732;49.556;6.286;2023-04-06T07:42:00;99793.13;;;8.93;58.16
51321;BME280;38732;49.556;6.286;2023-04-06T07:44:29;99788.91;;;9.01;59.22
51321;BME280;38732;49.556;6.286;2023-04-06T07:46:57;99790.75;;;9.11;56.41
51321;BME280;38732;49.556;6.286;2023-04-06T07:49:25;99797.66;;;9.15;57.85
51321;BME280;38732;49.556;6.286;2023-04-06T07:51:53;99789.09;;;9.16;55.88
51321;BME280;38732;49.556;6.286;2023-04-06T07:54:21;99790.97;;;9.31;58.05
51321;BME280;38732;49.556;6.286;2023-04-06T07:56:50;99786.97;;;9.62;49.88
51321;BME280;38732;49.556;6.286;2023-04-06T07:59:18;99786.88;;;9.53;52.26
51321;BME280;38732;49.556;6.286;2023-04-06T08:01:46;99780.91;;;9.57;51.61
51321;BME280;38732;49.556;6.286;2023-04-06T08:04:15;99778.50;;;9.77;49.64
51321;BME280;38732;49.556;6.286;2023-04-06T08:06:43;99777.53;;;9.61;51.71
51321;BME280;38732;49.556;6.286;2023-04-06T08:09:11;99771.72;;;9.90;49.57
51321;BME280;38732;49.556;6.286;2023-04-06T08:11:39;99782.91;;;9.92;50.86
51321;BME280;38732;49.556;6.286;2023-04-06T08:14:07;99777.03;;;10.10;50.52
51321;BME280;38732;49.556;6.286;2023-04-06T08:16:36;99776.34;;;10.35;48.08
51321;BME280;38732;49.556;6.286;2023-04-06T08:19:04;99782.97;;;9.97;50.49
51321;BME280;38732;49.556;6.286;2023-04-06T08:21:32;99774.72;;;10.53;47.68
51321;BME280;38732;49.556;6.286;2023-04-06T08:24:01;99768.81;;;10.71;49.41
51321;BME280;38732;49.556;6.286;2023-04-06T08:26:29;99778.22;;;10.63;50.14
51321;BME280;38732;49.556;6.286;2023-04-06T08:28:58;99771.78;;;9.96;49.12
51321;BME280;38732;49.556;6.286;2023-04-06T08:31:26;99773.94;;;10.69;49.23
51321;BME280;38732;49.556;6.286;2023-04-06T08:33:54;99779.97;;;10.70;48.43
51321;BME280;38732;49.556;6.286;2023-04-06T08:36:22;99776.56;;;10.83;48.80
51321;BME280;38732;49.556;6.286;2023-04-06T08:38:51;99773.22;;;11.07;48.70
51321;BME280;38732;49.556;6.286;2023-04-06T08:41:19;99778.41;;;11.10;48.69
51321;BME280;38732;49.556;6.286;2023-04-06T08:43:58;99782.63;;;10.85;49.78
51321;BME280;38732;49.556;6.286;2023-04-06T08:46:29;99774.16;;;11.32;48.70
51321;BME280;38732;49.556;6.286;2023-04-06T08:49:02;99777.59;;;11.40;50.03
51321;BME280;38732;49.556;6.286;2023-04-06T08:51:31;99775.06;;;11.63;51.95
51321;BME280;38732;49.556;6.286;2023-04-06T08:53:59;99769.00;;;11.57;48.96
51321;BME280;38732;49.556;6.286;2023-04-06T08:56:28;99763.00;;;11.81;52.94
51321;BME280;38732;49.556;6.286;2023-04-06T08:58:57;99766.44;;;11.86;48.66
51321;BME280;38732;49.556;6.286;2023-04-06T09:01:26;99764.75;;;11.86;49.79
51321;BME280;38732;49.556;6.286;2023-04-06T09:03:57;99755.22;;;12.15;47.67
51321;BME280;38732;49.556;6.286;2023-04-06T09:06:26;99759.53;;;12.05;48.51
51321;BME280;38732;49.556;6.286;2023-04-06T09:08:55;99754.38;;;12.11;49.02
51321;BME280;38732;49.556;6.286;2023-04-06T09:11:23;99754.34;;;12.17;49.37
51321;BME280;38732;49.556;6.286;2023-04-06T09:13:53;99753.47;;;12.34;48.79
51321;BME280;38732;49.556;6.286;2023-04-06T09:16:22;99757.75;;;12.44;50.83
51321;BME280;38732;49.556;6.286;2023-04-06T09:18:51;99746.53;;;12.28;51.86
51321;BME280;38732;49.556;6.286;2023-04-06T09:21:19;99752.63;;;11.49;50.69
51321;BME280;38732;49.556;6.286;2023-04-06T09:23:58;99744.03;;;12.06;48.58
51321;BME280;38732;49.556;6.286;2023-04-06T09:26:26;99743.09;;;12.27;49.44
51321;BME280;38732;49.556;6.286;2023-04-06T09:28:58;99738.69;;;12.57;49.04
51321;BME280;38732;49.556;6.286;2023-04-06T09:31:28;99740.47;;;12.49;46.21
51321;BME280;38732;49.556;6.286;2023-04-06T09:33:57;99753.41;;;12.50;47.84
51321;BME280;38732;49.556;6.286;2023-04-06T09:36:33;99753.25;;;12.83;47.26
51321;BME280;38732;49.556;6.286;2023-04-06T09:39:02;99743.81;;;12.76;47.26
51321;BME280;38732;49.556;6.286;2023-04-06T09:41:32;99748.84;;;13.00;47.00
51321;BME280;38732;49.556;6.286;2023-04-06T09:44:09;99747.13;;;13.04;47.89
51321;BME280;38732;49.556;6.286;2023-04-06T09:46:42;99743.81;;;12.72;49.23
51321;BME280;38732;49.556;6.286;2023-04-06T09:49:12;99755.75;;;13.03;46.65
51321;BME280;38732;49.556;6.286;2023-04-06T09:51:46;99748.72;;;13.26;47.10
51321;BME280;38732;49.556;6.286;2023-04-06T09:54:30;99746.44;;;12.66;48.48
51321;BME280;38732;49.556;6.286;2023-04-06T09:57:11;99749.97;;;12.38;47.61
51321;BME280;38732;49.556;6.286;2023-04-06T10:00:08;99747.00;;;13.27;48.56
51321;BME280;38732;49.556;6.286;2023-04-06T10:05:55;99740.75;;;13.58;45.03
51321;BME280;38732;49.556;6.286;2023-04-06T10:08:27;99740.72;;;13.62;48.87
51321;BME280;38732;49.556;6.286;2023-04-06T10:10:56;99737.88;;;13.91;47.45
51321;BME280;38732;49.556;6.286;2023-04-06T10:13:24;99740.16;;;14.21;45.49
51321;BME280;38732;49.556;6.286;2023-04-06T10:15:54;99741.13;;;14.11;46.40
51321;BME280;38732;49.556;6.286;2023-04-06T10:18:22;99735.44;;;13.72;47.94
51321;BME280;38732;49.556;6.286;2023-04-06T10:21:09;99749.56;;;14.30;47.28
51321;BME280;38732;49.556;6.286;2023-04-06T10:23:51;99745.59;;;13.97;46.78
51321;BME280;38732;49.556;6.286;2023-04-06T10:26:20;99742.91;;;14.05;46.76
51321;BME280;38732;49.556;6.286;2023-04-06T10:28:50;99737.25;;;13.61;46.46
51321;BME280;38732;49.556;6.286;2023-04-06T10:31:28;99735.56;;;13.58;46.71
51321;BME280;38732;49.556;6.286;2023-04-06T10:34:00;99746.06;;;13.38;47.31
51321;BME280;38732;49.556;6.286;2023-04-06T10:36:33;99748.28;;;12.30;50.70
51321;BME280;38732;49.556;6.286;2023-04-06T10:39:05;99745.66;;;12.46;49.09
51321;BME280;38732;49.556;6.286;2023-04-06T10:41:36;99751.75;;;11.50;52.34
51321;BME280;38732;49.556;6.286;2023-04-06T10:44:04;99748.22;;;12.58;51.44
51321;BME280;38732;49.556;6.286;2023-04-06T10:46:33;99743.66;;;13.06;48.73
51321;BME280;38732;49.556;6.286;2023-04-06T10:49:11;99740.66;;;13.71;47.60
51321;BME280;38732;49.556;6.286;2023-04-06T10:51:40;99749.00;;;12.72;48.32
51321;BME280;38732;49.556;6.286;2023-04-06T10:54:09;99739.53;;;13.95;47.51
51321;BME280;38732;49.556;6.286;2023-04-06T10:56:39;99738.34;;;13.29;47.83
51321;BME280;38732;49.556;6.286;2023-04-06T10:59:07;99736.66;;;13.21;47.83
51321;BME280;38732;49.556;6.286;2023-04-06T11:01:35;99732.97;;;14.45;46.08
51321;BME280;38732;49.556;6.286;2023-04-06T11:04:04;99724.19;;;13.70;46.06
51321;BME280;38732;49.556;6.286;2023-04-06T11:06:32;99726.72;;;13.81;45.94
51321;BME280;38732;49.556;6.286;2023-04-06T11:09:00;99725.63;;;14.02;45.52
51321;BME280;38732;49.556;6.286;2023-04-06T11:11:28;99723.47;;;14.44;44.83
51321;BME280;38732;49.556;6.286;2023-04-06T11:13:58;99732.19;;;14.37;45.56
51321;BME280;38732;49.556;6.286;2023-04-06T11:16:29;99726.84;;;14.54;43.32
51321;BME280;38732;49.556;6.286;2023-04-06T11:18:59;99728.56;;;14.52;43.63
51321;BME280;38732;49.556;6.286;2023-04-06T11:21:43;99740.53;;;13.81;45.13
51321;BME280;38732;49.556;6.286;2023-04-06T11:24:17;99743.50;;;13.34;47.04
51321;BME280;38732;49.556;6.286;2023-04-06T11:26:54;99729.31;;;12.21;48.39
51321;BME280;38732;49.556;6.286;2023-04-06T11:29:27;99736.78;;;12.98;48.58
51321;BME280;38732;49.556;6.286;2023-04-06T11:32:00;99722.75;;;13.38;46.44
51321;BME280;38732;49.556;6.286;2023-04-06T11:34:30;99723.44;;;13.61;47.86
51321;BME280;38732;49.556;6.286;2023-04-06T11:37:00;99707.22;;;14.25;45.21
51321;BME280;38732;49.556;6.286;2023-04-06T11:39:29;99712.59;;;14.08;46.11
51321;BME280;38732;49.556;6.286;2023-04-06T11:41:59;99713.09;;;13.54;47.10
51321;BME280;38732;49.556;6.286;2023-04-06T11:44:43;99705.91;;;13.82;47.28
51321;BME280;38732;49.556;6.286;2023-04-06T11:47:12;99706.91;;;14.53;46.51
51321;BME280;38732;49.556;6.286;2023-04-06T11:49:42;99708.69;;;13.64;48.94
51321;BME280;38732;49.556;6.286;2023-04-06T11:52:24;99710.09;;;14.00;48.25
51321;BME280;38732;49.556;6.286;2023-04-06T11:54:53;99712.88;;;13.77;48.03
51321;BME280;38732;49.556;6.286;2023-04-06T11:57:22;99717.03;;;12.77;51.26
51321;BME280;38732;49.556;6.286;2023-04-06T11:59:51;99724.06;;;12.47;55.12
51321;BME280;38732;49.556;6.286;2023-04-06T12:02:20;99719.84;;;11.63;62.41
51321;BME280;38732;49.556;6.286;2023-04-06T12:04:48;99712.06;;;12.17;61.85
51321;BME280;38732;49.556;6.286;2023-04-06T12:07:16;99703.69;;;13.40;58.20
51321;BME280;38732;49.556;6.286;2023-04-06T12:09:44;99713.50;;;12.87;58.21
51321;BME280;38732;49.556;6.286;2023-04-06T12:12:12;99719.59;;;12.80;59.01
51321;BME280;38732;49.556;6.286;2023-04-06T12:14:41;99714.19;;;13.21;60.12
51321;BME280;38732;49.556;6.286;2023-04-06T12:17:09;99723.28;;;12.22;64.13
51321;BME280;38732;49.556;6.286;2023-04-06T12:19:37;99718.06;;;12.28;63.39
51321;BME280;38732;49.556;6.286;2023-04-06T12:22:05;99719.03;;;11.73;64.71
51321;BME280;38732;49.556;6.286;2023-04-06T12:24:33;99711.16;;;12.36;64.37
51321;BME280;38732;49.556;6.286;2023-04-06T12:27:02;99704.22;;;12.44;61.25
51321;BME280;38732;49.556;6.286;2023-04-06T12:29:30;99711.13;;;12.44;59.02
51321;BME280;38732;49.556;6.286;2023-04-06T12:31:59;99708.34;;;12.87;58.11
51321;BME280;38732;49.556;6.286;2023-04-06T12:34:27;99695.50;;;12.62;59.13
51321;BME280;38732;49.556;6.286;2023-04-06T12:36:56;99703.25;;;13.92;59.60
51321;BME280;38732;49.556;6.286;2023-04-06T12:39:24;99700.91;;;13.66;55.67
51321;BME280;38732;49.556;6.286;2023-04-06T12:41:52;99706.09;;;13.64;56.47
51321;BME280;38732;49.556;6.286;2023-04-06T12:44:20;99693.31;;;14.31;53.42
51321;BME280;38732;49.556;6.286;2023-04-06T12:46:49;99696.00;;;14.23;53.25
51321;BME280;38732;49.556;6.286;2023-04-06T12:49:17;99702.06;;;13.20;56.93
51321;BME280;38732;49.556;6.286;2023-04-06T12:51:45;99703.19;;;12.78;60.73
51321;BME280;38732;49.556;6.286;2023-04-06T12:54:13;99699.91;;;13.77;59.48
51321;BME280;38732;49.556;6.286;2023-04-06T12:56:41;99703.34;;;12.53;58.98
51321;BME280;38732;49.556;6.286;2023-04-06T12:59:10;99713.81;;;12.07;65.17
51321;BME280;38732;49.556;6.286;2023-04-06T13:01:38;99719.03;;;11.56;64.47
51321;BME280;38732;49.556;6.286;2023-04-06T13:04:06;99702.66;;;11.86;65.99
51321;BME280;38732;49.556;6.286;2023-04-06T13:06:34;99694.88;;;11.79;68.42
51321;BME280;38732;49.556;6.286;2023-04-06T13:09:02;99694.88;;;11.86;65.04
51321;BME280;38732;49.556;6.286;2023-04-06T13:11:31;99706.94;;;11.94;65.80
51321;BME280;38732;49.556;6.286;2023-04-06T13:13:59;99693.09;;;12.16;66.50
51321;BME280;38732;49.556;6.286;2023-04-06T13:16:27;99718.16;;;11.56;67.18
51321;BME280;38732;49.556;6.286;2023-04-06T13:18:55;99702.66;;;11.91;65.14
51321;BME280;38732;49.556;6.286;2023-04-06T13:21:23;99717.19;;;10.95;68.29